createdAt,value
2019-05-30T00:00:05.731Z,4.80
2019-05-30T00:02:21.994Z,4.80
2019-05-30T00:04:54.117Z,3.77
2019-05-30T00:07:25.223Z,4.80
2019-05-30T00:09:56.299Z,4.58
2019-05-30T00:12:34.209Z,4.60
2019-05-30T00:15:05.897Z,4.27
2019-05-30T00:17:37.082Z,5.00
2019-05-30T00:20:09.433Z,4.80
2019-05-30T00:22:42.945Z,5.10
2019-05-30T00:25:16.783Z,4.97
2019-05-30T00:27:49.736Z,5.13
2019-05-30T00:30:24.753Z,5.80
2019-05-30T00:32:53.942Z,5.50
2019-05-30T00:35:24.838Z,4.83
2019-05-30T00:37:55.631Z,4.80
2019-05-30T00:40:25.806Z,5.10
2019-05-30T00:42:57.807Z,5.00
2019-05-30T00:45:28.978Z,5.13
2019-05-30T00:48:00.042Z,5.70
2019-05-30T00:50:30.019Z,5.13
2019-05-30T00:53:02.911Z,5.10
2019-05-30T00:55:35.854Z,5.17
2019-05-30T00:58:07.508Z,5.10
2019-05-30T01:00:43.587Z,4.83
2019-05-30T01:03:10.617Z,5.57
2019-05-30T01:05:41.860Z,5.60
2019-05-30T01:08:14.712Z,5.43
2019-05-30T01:10:44.754Z,6.73
2019-05-30T01:13:17.059Z,5.83
2019-05-30T01:15:56.860Z,5.45
2019-05-30T01:18:28.049Z,6.53
2019-05-30T01:20:59.156Z,6.90
2019-05-30T01:23:31.851Z,6.40
2019-05-30T01:26:05.472Z,7.33
2019-05-30T01:28:39.395Z,6.73
2019-05-30T01:31:11.114Z,7.37
2019-05-30T01:33:45.650Z,7.83
2019-05-30T01:36:16.857Z,7.43
2019-05-30T01:38:48.000Z,6.40
2019-05-30T01:41:24.001Z,6.37
2019-05-30T01:43:56.372Z,5.73
2019-05-30T01:46:27.569Z,6.03
2019-05-30T01:48:58.167Z,5.77
2019-05-30T01:51:33.412Z,5.23
2019-05-30T01:54:06.614Z,5.90
2019-05-30T01:56:37.572Z,6.17
2019-05-30T01:59:08.901Z,6.53
2019-05-30T02:01:40.365Z,5.95
2019-05-30T02:04:13.108Z,6.67
2019-05-30T02:06:44.454Z,6.77
2019-05-30T02:09:14.402Z,6.30
2019-05-30T02:11:46.697Z,6.40
2019-05-30T02:14:22.831Z,6.10
2019-05-30T02:16:52.702Z,7.07
2019-05-30T02:19:23.681Z,7.40
2019-05-30T02:21:55.094Z,7.27
2019-05-30T02:24:26.106Z,7.57
2019-05-30T02:26:58.350Z,7.30
2019-05-30T02:29:29.255Z,6.90
2019-05-30T02:32:00.827Z,7.80
2019-05-30T02:34:30.802Z,7.10
2019-05-30T02:37:03.435Z,6.80
2019-05-30T02:39:36.076Z,9.00
2019-05-30T02:42:09.409Z,8.18
2019-05-30T02:44:39.535Z,7.23
2019-05-30T02:47:12.152Z,7.20
2019-05-30T02:49:44.742Z,6.90
2019-05-30T02:52:16.071Z,6.90
2019-05-30T02:54:47.114Z,7.43
2019-05-30T02:57:18.171Z,7.00
2019-05-30T02:59:48.035Z,6.87
2019-05-30T03:02:18.610Z,7.00
2019-05-30T03:04:52.637Z,7.27
2019-05-30T03:07:26.077Z,6.97
2019-05-30T03:09:59.173Z,6.37
2019-05-30T03:12:31.630Z,5.17
2019-05-30T03:15:02.567Z,6.07
2019-05-30T03:17:35.579Z,6.30
2019-05-30T03:20:17.985Z,5.57
2019-05-30T03:22:40.313Z,5.50
2019-05-30T03:25:16.145Z,7.67
2019-05-30T03:27:46.516Z,5.20
2019-05-30T03:30:26.735Z,5.97
2019-05-30T03:33:24.650Z,5.23
2019-05-30T03:35:29.314Z,5.00
2019-05-30T03:37:55.546Z,6.23
2019-05-30T03:40:28.233Z,6.10
2019-05-30T03:42:58.091Z,5.00
2019-05-30T03:48:04.287Z,6.20
2019-05-30T03:50:38.446Z,6.50
2019-05-30T03:53:13.803Z,6.03
2019-05-30T03:55:46.447Z,5.10
2019-05-30T03:58:32.229Z,5.00
2019-05-30T04:01:08.288Z,5.35
2019-05-30T04:04:06.435Z,5.23
2019-05-30T04:06:49.655Z,5.00
2019-05-30T04:09:25.185Z,5.00
2019-05-30T04:12:19.991Z,5.60
2019-05-30T04:14:53.146Z,5.03
2019-05-30T04:17:23.073Z,4.70
2019-05-30T04:20:20.546Z,5.10
2019-05-30T04:22:47.678Z,4.93
2019-05-30T04:25:18.555Z,4.73
2019-05-30T04:27:49.876Z,4.57
2019-05-30T04:30:20.866Z,5.00
2019-05-30T04:33:15.733Z,4.53
2019-05-30T04:35:28.057Z,4.60
2019-05-30T04:37:58.988Z,4.90
2019-05-30T04:40:31.552Z,4.50
2019-05-30T04:43:02.406Z,4.60
2019-05-30T04:45:33.618Z,4.40
2019-05-30T04:48:07.333Z,4.75
2019-05-30T04:50:36.670Z,5.53
2019-05-30T04:53:07.819Z,4.77
2019-05-30T04:55:40.730Z,4.80
2019-05-30T04:58:13.348Z,4.87
2019-05-30T05:00:46.379Z,5.20
2019-05-30T05:03:43.443Z,5.85
2019-05-30T05:05:55.443Z,5.27
2019-05-30T05:08:44.787Z,4.40
2019-05-30T05:11:18.655Z,4.70
2019-05-30T05:13:49.340Z,4.83
2019-05-30T05:16:31.341Z,5.05
2019-05-30T05:18:53.225Z,4.30
2019-05-30T05:21:25.452Z,4.80
2019-05-30T05:23:56.827Z,5.00
2019-05-30T05:26:25.858Z,5.10
2019-05-30T05:28:58.581Z,5.60
2019-05-30T05:33:59.675Z,4.57
2019-05-30T05:36:31.125Z,4.80
2019-05-30T05:39:02.546Z,5.00
2019-05-30T05:41:33.660Z,5.37
2019-05-30T05:44:04.855Z,4.77
2019-05-30T05:46:36.834Z,4.93
2019-05-30T05:49:08.267Z,5.40
2019-05-30T05:51:41.395Z,5.27
2019-05-30T05:54:14.574Z,4.10
2019-05-30T05:56:47.791Z,4.97
2019-05-30T05:59:20.952Z,4.77
2019-05-30T06:01:52.794Z,3.90
2019-05-30T06:04:25.353Z,3.33
2019-05-30T06:06:58.299Z,4.43
2019-05-30T06:09:28.765Z,4.00
2019-05-30T06:12:01.343Z,4.10
2019-05-30T06:14:32.279Z,3.50
2019-05-30T06:17:03.715Z,6.30
2019-05-30T06:19:46.060Z,7.53
2019-05-30T06:22:29.495Z,5.63
2019-05-30T06:24:59.516Z,4.87
2019-05-30T06:27:30.691Z,2.37
2019-05-30T06:30:04.534Z,2.70
2019-05-30T06:32:35.890Z,3.53
2019-05-30T06:35:09.692Z,4.40
2019-05-30T06:37:40.825Z,3.53
2019-05-30T06:40:14.341Z,3.45
2019-05-30T06:42:47.689Z,2.83
2019-05-30T06:45:23.643Z,2.37
2019-05-30T06:47:53.917Z,2.20
2019-05-30T06:50:25.325Z,2.53
2019-05-30T06:52:56.770Z,2.87
2019-05-30T06:55:27.281Z,2.00
2019-05-30T06:57:57.096Z,1.93
2019-05-30T07:00:28.103Z,2.17
2019-05-30T07:03:00.444Z,1.53
2019-05-30T07:05:32.246Z,1.60
2019-05-30T07:08:05.178Z,2.17
2019-05-30T07:10:36.632Z,3.13
2019-05-30T07:13:07.548Z,2.27
2019-05-30T07:15:37.504Z,2.20
2019-05-30T07:18:09.098Z,1.73
2019-05-30T07:20:40.606Z,2.40
2019-05-30T07:23:12.993Z,2.50
2019-05-30T07:25:46.395Z,2.22
2019-05-30T07:28:23.708Z,2.17
2019-05-30T07:30:55.349Z,2.20
2019-05-30T07:36:00.450Z,2.43
2019-05-30T07:38:32.532Z,1.50
2019-05-30T07:41:05.439Z,2.97
2019-05-30T07:43:36.322Z,2.70
2019-05-30T07:46:07.770Z,2.20
2019-05-30T07:48:38.588Z,2.47
2019-05-30T07:51:10.194Z,1.40
2019-05-30T07:53:42.687Z,1.93
2019-05-30T07:56:15.425Z,2.10
2019-05-30T07:58:46.841Z,2.70
2019-05-30T08:01:19.397Z,1.77
2019-05-30T08:03:52.598Z,1.70
2019-05-30T08:06:27.408Z,2.17
2019-05-30T08:09:02.202Z,2.27
2019-05-30T08:11:35.123Z,1.50
2019-05-30T08:14:07.544Z,1.70
2019-05-30T08:16:40.332Z,1.40
2019-05-30T08:19:22.137Z,2.23
2019-05-30T08:21:51.170Z,2.03
2019-05-30T08:24:22.522Z,1.85
2019-05-30T08:26:53.746Z,2.43
2019-05-30T08:29:28.068Z,2.63
2019-05-30T08:31:58.259Z,1.90
2019-05-30T08:34:32.876Z,2.33
2019-05-30T08:37:04.096Z,1.60
2019-05-30T08:39:35.298Z,1.37
2019-05-30T08:42:07.277Z,1.92
2019-05-30T08:44:38.142Z,1.30
2019-05-30T08:47:11.200Z,1.23
2019-05-30T08:49:42.454Z,1.90
2019-05-30T08:52:15.459Z,1.73
2019-05-30T08:54:46.440Z,2.13
2019-05-30T08:57:17.659Z,1.37
2019-05-30T08:59:48.171Z,1.67
2019-05-30T09:02:21.706Z,1.27
2019-05-30T09:04:56.156Z,1.83
2019-05-30T09:07:27.187Z,1.40
2019-05-30T09:09:57.588Z,1.73
2019-05-30T09:12:28.791Z,1.80
2019-05-30T09:15:02.302Z,1.43
2019-05-30T09:17:33.535Z,2.10
2019-05-30T09:20:08.030Z,1.10
2019-05-30T09:22:39.805Z,1.90
2019-05-30T09:25:13.688Z,1.70
2019-05-30T09:27:45.203Z,2.67
2019-05-30T09:30:19.136Z,1.40
2019-05-30T09:32:50.398Z,1.30
2019-05-30T09:35:23.409Z,1.40
2019-05-30T09:37:57.441Z,2.13
2019-05-30T09:40:28.224Z,2.00
2019-05-30T09:42:58.229Z,1.53
2019-05-30T09:45:29.891Z,1.70
2019-05-30T09:48:02.665Z,1.60
2019-05-30T09:50:34.872Z,1.73
2019-05-30T09:53:06.257Z,1.40
2019-05-30T09:55:36.177Z,1.37
2019-05-30T09:58:09.592Z,1.60
2019-05-30T10:00:42.876Z,1.47
2019-05-30T10:03:12.795Z,1.80
2019-05-30T10:05:45.141Z,1.70
2019-05-30T10:08:17.415Z,1.43
2019-05-30T10:10:49.593Z,1.20
2019-05-30T10:13:23.407Z,1.22
2019-05-30T10:15:56.633Z,1.10
2019-05-30T10:18:30.652Z,1.20
2019-05-30T10:21:02.180Z,1.17
2019-05-30T10:23:33.207Z,1.27
2019-05-30T10:26:06.277Z,1.30
2019-05-30T10:28:36.318Z,1.33
2019-05-30T10:31:08.532Z,1.53
2019-05-30T10:33:37.914Z,1.40
2019-05-30T10:36:14.424Z,1.37
2019-05-30T10:38:42.842Z,1.20
2019-05-30T10:41:14.385Z,1.12
2019-05-30T10:43:47.450Z,1.33
2019-05-30T10:46:17.617Z,1.70
2019-05-30T10:48:49.134Z,1.17
2019-05-30T10:51:22.039Z,1.10
2019-05-30T10:53:57.788Z,1.97
2019-05-30T10:56:32.207Z,1.27
2019-05-30T10:59:06.177Z,1.20
2019-05-30T11:01:41.019Z,1.10
2019-05-30T11:04:12.239Z,1.00
2019-05-30T11:07:11.323Z,1.30
2019-05-30T11:09:42.831Z,1.20
2019-05-30T11:12:13.072Z,1.37
2019-05-30T11:14:43.674Z,1.23
2019-05-30T11:17:15.681Z,1.47
2019-05-30T11:19:49.873Z,1.30
2019-05-30T11:22:21.302Z,1.45
2019-05-30T11:25:12.138Z,1.00
2019-05-30T11:27:45.107Z,1.10
2019-05-30T11:30:18.470Z,1.47
2019-05-30T11:32:52.971Z,1.40
2019-05-30T11:35:26.747Z,1.40
2019-05-30T11:37:57.309Z,1.60
2019-05-30T11:40:29.850Z,1.20
2019-05-30T11:43:01.223Z,1.27
2019-05-30T11:45:32.527Z,1.27
2019-05-30T11:48:24.365Z,1.10
2019-05-30T11:50:57.956Z,1.50
2019-05-30T11:53:30.489Z,1.00
2019-05-30T11:56:03.006Z,1.03
2019-05-30T11:58:34.317Z,1.57
2019-05-30T12:01:06.341Z,1.70
2019-05-30T12:06:12.999Z,1.17
2019-05-30T12:08:43.891Z,1.37
2019-05-30T12:11:15.040Z,1.60
2019-05-30T12:13:44.457Z,1.40
2019-05-30T12:16:15.927Z,1.17
2019-05-30T12:18:47.868Z,1.30
2019-05-30T12:21:20.443Z,2.15
2019-05-30T12:23:54.462Z,1.23
2019-05-30T12:26:24.496Z,2.00
2019-05-30T12:28:55.957Z,1.70
2019-05-30T12:31:26.038Z,1.10
2019-05-30T12:33:58.489Z,1.40
2019-05-30T12:36:29.700Z,0.90
2019-05-30T12:39:00.804Z,1.47
2019-05-30T12:41:34.459Z,1.00
2019-05-30T12:44:06.951Z,1.27
2019-05-30T12:46:36.958Z,1.20
2019-05-30T12:49:10.045Z,1.30
2019-05-30T12:51:43.183Z,1.40
2019-05-30T12:54:13.909Z,1.20
2019-05-30T12:56:44.035Z,1.60
2019-05-30T12:59:16.267Z,1.10
2019-05-30T13:01:47.562Z,0.93
2019-05-30T13:04:19.765Z,1.30
2019-05-30T13:06:54.248Z,1.30
2019-05-30T13:09:27.311Z,1.20
2019-05-30T13:12:01.093Z,1.37
2019-05-30T13:14:30.982Z,0.90
2019-05-30T13:17:01.841Z,1.07
2019-05-30T13:19:35.671Z,1.33
2019-05-30T13:22:07.712Z,1.50
2019-05-30T13:24:42.108Z,1.30
2019-05-30T13:27:14.471Z,2.17
2019-05-30T13:29:45.610Z,0.97
2019-05-30T13:32:20.894Z,1.23
2019-05-30T13:34:53.864Z,1.07
2019-05-30T13:37:23.831Z,1.03
2019-05-30T13:39:54.674Z,1.33
2019-05-30T13:42:25.843Z,1.40
2019-05-30T13:44:57.771Z,1.17
2019-05-30T13:47:29.165Z,1.10
2019-05-30T13:50:02.991Z,1.07
2019-05-30T13:52:37.790Z,1.20
2019-05-30T13:55:13.373Z,0.93
2019-05-30T13:57:43.526Z,1.10
2019-05-30T14:00:17.793Z,1.33
2019-05-30T14:02:50.379Z,1.20
2019-05-30T14:05:21.382Z,1.27
2019-05-30T14:07:55.124Z,1.23
2019-05-30T14:10:26.555Z,0.97
2019-05-30T14:12:58.387Z,2.40
2019-05-30T14:15:29.656Z,1.30
2019-05-30T14:20:34.707Z,1.50
2019-05-30T14:23:07.361Z,3.00
2019-05-30T14:25:38.874Z,1.90
2019-05-30T14:28:12.120Z,1.17
2019-05-30T14:30:43.736Z,1.27
2019-05-30T14:33:15.771Z,1.30
2019-05-30T14:35:49.195Z,1.70
2019-05-30T14:38:22.178Z,1.60
2019-05-30T14:40:52.166Z,1.23
2019-05-30T14:43:25.520Z,2.23
2019-05-30T14:45:58.585Z,1.33
2019-05-30T14:48:30.074Z,1.20
2019-05-30T14:51:02.850Z,1.07
2019-05-30T14:53:36.372Z,1.20
2019-05-30T14:56:09.079Z,1.50
2019-05-30T14:58:40.302Z,1.70
2019-05-30T15:01:13.393Z,1.62
2019-05-30T15:03:43.577Z,1.47
2019-05-30T15:06:17.721Z,1.30
2019-05-30T15:08:51.608Z,1.40
2019-05-30T15:11:24.057Z,3.57
2019-05-30T15:13:53.944Z,4.87
2019-05-30T15:16:27.592Z,3.37
2019-05-30T15:18:59.916Z,2.73
2019-05-30T15:21:34.971Z,3.03
2019-05-30T15:24:07.742Z,2.00
2019-05-30T15:26:39.051Z,1.20
2019-05-30T15:29:10.404Z,0.90
2019-05-30T15:31:43.158Z,1.73
2019-05-30T15:34:15.309Z,2.93
2019-05-30T15:36:49.867Z,3.47
2019-05-30T15:39:32.232Z,3.43
2019-05-30T15:41:55.418Z,1.50
2019-05-30T15:44:26.555Z,1.07
2019-05-30T15:47:00.838Z,1.43
2019-05-30T15:49:35.751Z,2.00
2019-05-30T15:52:06.247Z,1.20
2019-05-30T15:54:39.175Z,1.77
2019-05-30T15:57:11.134Z,1.20
2019-05-30T15:59:42.223Z,1.20
2019-05-30T16:02:16.112Z,3.03
2019-05-30T16:04:51.725Z,2.00
2019-05-30T16:07:24.034Z,1.30
2019-05-30T16:09:55.656Z,3.30
2019-05-30T16:12:24.673Z,1.73
2019-05-30T16:14:59.381Z,0.90
2019-05-30T16:17:32.225Z,1.50
2019-05-30T16:20:06.151Z,1.50
2019-05-30T16:22:37.973Z,2.27
2019-05-30T16:25:11.064Z,1.27
2019-05-30T16:27:43.612Z,1.90
2019-05-30T16:30:19.720Z,1.32
2019-05-30T16:32:48.744Z,1.40
2019-05-30T16:35:22.245Z,1.13
2019-05-30T16:37:53.579Z,1.17
2019-05-30T16:40:22.901Z,1.17
2019-05-30T16:42:54.903Z,0.97
2019-05-30T16:45:26.765Z,1.33
2019-05-30T16:47:57.479Z,2.80
2019-05-30T16:50:29.216Z,2.30
2019-05-30T16:53:02.003Z,1.60
2019-05-30T16:55:31.989Z,1.43
2019-05-30T16:58:02.033Z,1.17
2019-05-30T17:00:36.391Z,1.50
2019-05-30T17:03:07.911Z,1.23
2019-05-30T17:05:42.667Z,1.40
2019-05-30T17:08:16.011Z,1.17
2019-05-30T17:10:49.154Z,1.30
2019-05-30T17:13:19.624Z,1.10
2019-05-30T17:15:51.161Z,1.10
2019-05-30T17:18:24.347Z,1.17
2019-05-30T17:20:56.546Z,1.40
2019-05-30T17:23:29.440Z,1.60
2019-05-30T17:26:03.830Z,1.60
2019-05-30T17:28:35.148Z,1.27
2019-05-30T17:31:07.946Z,1.00
2019-05-30T17:33:39.487Z,1.20
2019-05-30T17:36:09.498Z,1.30
2019-05-30T17:38:41.801Z,1.93
2019-05-30T17:41:14.373Z,1.73
2019-05-30T17:43:45.298Z,1.40
2019-05-30T17:46:16.520Z,1.70
2019-05-30T17:48:50.893Z,1.60
2019-05-30T17:51:21.946Z,1.30
2019-05-30T17:53:53.183Z,2.07
2019-05-30T17:56:23.970Z,2.60
2019-05-30T17:58:55.024Z,2.10
2019-05-30T18:01:28.345Z,1.50
2019-05-30T18:03:57.791Z,1.50
2019-05-30T18:06:29.371Z,1.87
2019-05-30T18:09:02.909Z,1.97
2019-05-30T18:11:32.976Z,2.37
2019-05-30T18:14:07.036Z,2.00
2019-05-30T18:16:38.643Z,2.20
2019-05-30T18:19:11.549Z,2.40
2019-05-30T18:21:41.606Z,2.37
2019-05-30T18:24:14.295Z,3.00
2019-05-30T18:26:51.543Z,3.10
2019-05-30T18:31:54.634Z,3.97
2019-05-30T18:34:28.282Z,3.90
2019-05-30T18:37:04.636Z,4.57
2019-05-30T18:39:34.455Z,5.00
2019-05-30T18:42:04.301Z,4.90
2019-05-30T18:44:39.009Z,5.67
2019-05-30T18:47:11.469Z,4.97
2019-05-30T18:49:41.517Z,4.37
2019-05-30T18:52:12.720Z,5.70
2019-05-30T18:54:46.301Z,4.27
2019-05-30T18:57:17.267Z,2.85
2019-05-30T18:59:50.070Z,6.00
2019-05-30T19:02:21.144Z,3.50
2019-05-30T19:04:52.085Z,4.13
2019-05-30T19:07:26.575Z,5.75
2019-05-30T19:09:58.694Z,4.43
2019-05-30T19:12:34.274Z,4.70
2019-05-30T19:15:13.512Z,3.73
2019-05-30T19:17:46.230Z,7.57
2019-05-30T19:20:18.340Z,9.78
2019-05-30T19:22:50.601Z,11.77
2019-05-30T19:25:20.526Z,10.07
2019-05-30T19:27:52.643Z,6.87
2019-05-30T19:30:26.433Z,5.77
2019-05-30T19:33:00.672Z,4.03
2019-05-30T19:35:33.176Z,3.97
2019-05-30T19:38:06.517Z,2.20
2019-05-30T19:40:38.016Z,3.70
2019-05-30T19:43:08.287Z,2.57
2019-05-30T19:45:41.381Z,3.80
2019-05-30T19:48:16.493Z,3.98
2019-05-30T19:50:47.363Z,3.77
2019-05-30T19:53:19.819Z,4.13
2019-05-30T19:55:53.731Z,3.97
2019-05-30T19:58:23.661Z,3.52
2019-05-30T20:00:58.321Z,3.33
2019-05-30T20:03:36.251Z,3.67
2019-05-30T20:06:00.410Z,4.10
2019-05-30T20:08:46.953Z,7.30
2019-05-30T20:11:05.087Z,10.10
2019-05-30T20:13:39.197Z,6.77
2019-05-30T20:16:13.623Z,4.33
2019-05-30T20:18:43.772Z,4.57
2019-05-30T20:21:14.794Z,124.77
2019-05-30T20:23:54.539Z,68.20
2019-05-30T20:26:20.299Z,38.67
2019-05-30T20:28:52.093Z,27.90
2019-05-30T20:31:23.470Z,12.63
2019-05-30T20:33:54.587Z,38.30
2019-05-30T20:36:27.789Z,12.13
2019-05-30T20:39:00.987Z,3.00
2019-05-30T20:41:32.217Z,3.17
2019-05-30T20:44:05.857Z,3.10
2019-05-30T20:46:37.061Z,5.27
2019-05-30T20:49:09.124Z,13.87
2019-05-30T20:51:41.207Z,14.43
2019-05-30T20:54:11.329Z,12.60
2019-05-30T20:56:42.166Z,12.47
2019-05-30T20:59:13.317Z,10.93
2019-05-30T21:01:44.283Z,11.87
2019-05-30T21:04:16.684Z,6.80
2019-05-30T21:06:50.902Z,5.30
2019-05-30T21:09:28.772Z,4.47
2019-05-30T21:11:55.363Z,4.00
2019-05-30T21:14:27.814Z,4.50
2019-05-30T21:17:00.223Z,4.50
2019-05-30T21:19:31.312Z,4.53
2019-05-30T21:22:01.176Z,7.13
2019-05-30T21:24:32.015Z,10.33
2019-05-30T21:27:05.311Z,17.40
2019-05-30T21:29:35.216Z,19.67
2019-05-30T21:32:08.810Z,11.37
2019-05-30T21:34:42.424Z,8.60
2019-05-30T21:37:14.431Z,7.40
2019-05-30T21:39:48.104Z,14.57
2019-05-30T21:42:19.403Z,35.53
2019-05-30T21:44:52.375Z,25.37
2019-05-30T21:47:24.292Z,13.70
2019-05-30T21:49:56.898Z,6.73
2019-05-30T21:52:35.362Z,6.60
2019-05-30T21:55:06.274Z,8.57
2019-05-30T21:57:39.831Z,24.57
2019-05-30T22:00:14.108Z,33.47
2019-05-30T22:02:48.655Z,39.30
2019-05-30T22:05:22.414Z,42.93
2019-05-30T22:07:55.959Z,39.10
2019-05-30T22:10:26.003Z,24.40
2019-05-30T22:13:08.971Z,13.63
2019-05-30T22:15:27.905Z,10.80
2019-05-30T22:18:00.360Z,11.73
2019-05-30T22:23:02.391Z,12.23
2019-05-30T22:25:33.439Z,8.47
2019-05-30T22:28:10.615Z,7.97
2019-05-30T22:30:42.292Z,19.70
2019-05-30T22:33:13.245Z,46.10
2019-05-30T22:38:18.681Z,16.70
2019-05-30T22:40:50.035Z,19.37
2019-05-30T22:43:25.273Z,63.83
2019-05-30T22:45:55.364Z,202.83
2019-05-30T22:48:26.799Z,96.37
2019-05-30T22:50:58.043Z,114.03
2019-05-30T22:53:31.576Z,62.73
2019-05-30T22:56:02.490Z,36.40
2019-05-30T22:58:32.649Z,24.60
2019-05-30T23:01:04.863Z,13.53
2019-05-30T23:03:37.543Z,10.83
2019-05-30T23:06:09.911Z,15.23
2019-05-30T23:08:39.818Z,14.20
2019-05-30T23:11:14.277Z,9.10
2019-05-30T23:13:47.894Z,11.27
2019-05-30T23:16:19.013Z,16.43
2019-05-30T23:18:52.574Z,11.43
2019-05-30T23:21:25.610Z,11.80
2019-05-30T23:23:57.290Z,9.03
2019-05-30T23:26:28.374Z,8.93
2019-05-30T23:28:59.432Z,11.20
2019-05-30T23:31:33.274Z,8.80
2019-05-30T23:34:06.311Z,8.93
2019-05-30T23:36:39.696Z,11.00
2019-05-30T23:39:10.786Z,9.00
2019-05-30T23:41:41.760Z,11.97
2019-05-30T23:44:12.465Z,12.83
2019-05-30T23:46:42.402Z,7.23
2019-05-30T23:49:15.298Z,5.10
2019-05-30T23:51:46.226Z,4.23
2019-05-30T23:54:16.712Z,4.47
2019-05-30T23:56:47.871Z,10.73
2019-05-30T23:59:21.029Z,39.93
